createdAt,value
2019-02-27T00:04:34.850Z,8.30
2019-02-27T00:09:38.825Z,8.30
2019-02-27T00:14:44.011Z,8.33
2019-02-27T00:19:49.246Z,8.30
2019-02-27T00:24:54.428Z,7.90
2019-02-27T00:30:04.504Z,7.93
2019-02-27T00:35:08.963Z,7.13
2019-02-27T00:40:14.115Z,7.13
2019-02-27T00:45:19.284Z,6.50
2019-02-27T00:50:24.705Z,6.90
2019-02-27T00:55:30.623Z,6.72
2019-02-27T01:00:38.960Z,6.40
2019-02-27T01:05:43.841Z,6.97
2019-02-27T01:10:48.934Z,6.70
2019-02-27T01:15:54.992Z,7.20
2019-02-27T01:21:00.141Z,7.40
2019-02-27T01:26:05.297Z,7.27
2019-02-27T01:31:10.453Z,7.20
2019-02-27T01:36:15.568Z,7.27
2019-02-27T01:41:24.353Z,7.77
2019-02-27T01:46:28.476Z,8.03
2019-02-27T01:51:34.897Z,8.10
2019-02-27T01:56:39.975Z,7.50
2019-02-27T02:01:45.896Z,7.80
2019-02-27T02:06:51.040Z,7.47
2019-02-27T02:11:56.193Z,7.20
2019-02-27T02:17:11.809Z,7.83
2019-02-27T02:22:32.116Z,6.97
2019-02-27T02:28:04.192Z,7.13
2019-02-27T02:33:29.378Z,6.97
2019-02-27T02:39:19.171Z,6.60
2019-02-27T02:45:33.076Z,6.53
2019-02-27T02:51:05.072Z,6.73
2019-02-27T02:56:25.677Z,5.90
2019-02-27T03:01:49.392Z,6.60
2019-02-27T03:07:30.938Z,6.50
2019-02-27T03:13:14.935Z,5.83
2019-02-27T03:19:07.415Z,6.23
2019-02-27T03:24:45.719Z,6.17
2019-02-27T03:30:34.022Z,6.37
2019-02-27T03:36:15.300Z,6.73
2019-02-27T03:41:30.285Z,6.67
2019-02-27T03:47:08.099Z,6.70
2019-02-27T03:52:48.984Z,6.50
2019-02-27T03:58:19.864Z,6.87
2019-02-27T04:03:57.571Z,7.00
2019-02-27T04:09:03.327Z,6.90
2019-02-27T04:14:29.581Z,6.53
2019-02-27T04:19:39.218Z,5.93
2019-02-27T04:24:44.714Z,6.43
2019-02-27T04:29:49.869Z,6.43
2019-02-27T04:34:56.142Z,5.67
2019-02-27T04:40:01.296Z,6.37
2019-02-27T04:45:09.846Z,6.40
2019-02-27T04:50:15.810Z,6.47
2019-02-27T04:55:20.983Z,5.90
2019-02-27T05:00:26.845Z,5.77
2019-02-27T05:05:32.368Z,6.20
2019-02-27T05:10:38.245Z,6.53
2019-02-27T05:15:44.822Z,6.37
2019-02-27T05:20:50.433Z,6.43
2019-02-27T05:25:56.373Z,7.23
2019-02-27T05:31:01.588Z,7.10
2019-02-27T05:36:06.666Z,7.07
2019-02-27T05:41:12.090Z,8.03
2019-02-27T05:46:18.203Z,7.87
2019-02-27T05:51:23.720Z,7.77
2019-02-27T05:56:29.223Z,7.83
2019-02-27T06:01:38.273Z,7.47
2019-02-27T06:06:45.108Z,7.27
2019-02-27T06:11:50.116Z,6.30
2019-02-27T06:16:55.352Z,6.63
2019-02-27T06:22:00.517Z,6.50
2019-02-27T06:27:06.847Z,5.77
2019-02-27T06:32:13.016Z,5.70
2019-02-27T06:37:19.009Z,5.63
2019-02-27T06:42:24.205Z,5.80
2019-02-27T06:47:29.725Z,5.77
2019-02-27T06:52:34.815Z,5.93
2019-02-27T06:57:41.267Z,6.47
2019-02-27T07:02:47.539Z,6.37
2019-02-27T07:07:52.712Z,6.70
2019-02-27T07:12:58.736Z,5.83
2019-02-27T07:18:06.222Z,5.80
2019-02-27T07:23:11.142Z,5.77
2019-02-27T07:28:16.587Z,5.57
2019-02-27T07:33:21.758Z,5.77
2019-02-27T07:38:26.919Z,5.63
2019-02-27T07:43:32.075Z,5.53
2019-02-27T07:48:37.267Z,5.67
2019-02-27T07:53:42.853Z,5.53
2019-02-27T07:58:49.088Z,5.87
2019-02-27T08:03:54.243Z,5.90
2019-02-27T08:09:03.494Z,5.77
2019-02-27T08:14:13.012Z,6.33
2019-02-27T08:19:18.314Z,6.33
2019-02-27T08:24:24.898Z,5.90
2019-02-27T08:29:31.162Z,7.10
2019-02-27T08:34:36.737Z,6.10
2019-02-27T08:39:42.242Z,6.57
2019-02-27T08:44:48.598Z,6.37
2019-02-27T08:49:57.614Z,7.17
2019-02-27T08:55:05.452Z,7.33
2019-02-27T09:00:14.446Z,7.75
2019-02-27T09:05:20.043Z,7.20
2019-02-27T09:10:29.388Z,6.97
2019-02-27T09:15:33.114Z,7.05
2019-02-27T09:20:38.366Z,7.65
2019-02-27T09:25:43.601Z,7.87
2019-02-27T09:30:49.617Z,7.60
2019-02-27T09:35:54.859Z,8.18
2019-02-27T09:41:00.118Z,7.70
2019-02-27T09:46:05.498Z,8.10
2019-02-27T09:51:10.733Z,8.83
2019-02-27T09:56:17.045Z,8.20
2019-02-27T10:01:22.698Z,8.73
2019-02-27T10:06:28.593Z,8.78
2019-02-27T10:11:33.827Z,8.85
2019-02-27T10:16:39.064Z,8.15
2019-02-27T10:21:45.418Z,9.20
2019-02-27T10:26:53.532Z,8.58
2019-02-27T10:31:58.271Z,8.40
2019-02-27T10:37:05.047Z,8.65
2019-02-27T10:42:10.336Z,8.33
2019-02-27T10:47:15.965Z,9.05
2019-02-27T10:52:24.396Z,8.73
2019-02-27T10:57:31.742Z,8.68
2019-02-27T11:02:35.345Z,8.55
2019-02-27T11:07:40.607Z,8.43
2019-02-27T11:12:45.893Z,8.58
2019-02-27T11:17:51.970Z,8.10
2019-02-27T11:22:57.584Z,8.08
2019-02-27T11:28:02.848Z,7.97
2019-02-27T11:33:08.466Z,8.48
2019-02-27T11:38:13.819Z,9.00
2019-02-27T11:43:19.066Z,8.10
2019-02-27T11:48:24.332Z,7.55
2019-02-27T11:53:29.926Z,7.60
2019-02-27T11:58:38.232Z,7.85
2019-02-27T12:03:45.726Z,8.58
2019-02-27T12:08:49.391Z,8.85
2019-02-27T12:13:55.088Z,7.80
2019-02-27T12:19:00.330Z,9.63
2019-02-27T12:24:05.973Z,8.30
2019-02-27T12:29:11.684Z,8.00
2019-02-27T12:34:17.297Z,7.30
2019-02-27T12:39:22.546Z,8.10
2019-02-27T12:44:28.558Z,6.72
2019-02-27T12:49:33.834Z,7.75
2019-02-27T12:54:39.075Z,8.45
2019-02-27T12:59:44.312Z,7.87
2019-02-27T13:04:52.484Z,8.38
2019-02-27T13:09:58.774Z,9.08
2019-02-27T13:15:06.682Z,8.10
2019-02-27T13:20:16.853Z,9.18
2019-02-27T13:25:24.265Z,9.03
2019-02-27T13:30:29.157Z,8.75
2019-02-27T13:35:34.765Z,8.38
2019-02-27T13:40:40.327Z,8.45
2019-02-27T13:45:47.572Z,8.20
2019-02-27T13:50:52.553Z,8.40
2019-02-27T13:55:57.806Z,8.28
2019-02-27T14:01:03.064Z,8.38
2019-02-27T14:06:09.327Z,7.78
2019-02-27T14:11:14.837Z,7.53
2019-02-27T14:16:20.076Z,7.12
2019-02-27T14:21:25.349Z,6.65
2019-02-27T14:26:30.594Z,5.33
2019-02-27T14:31:36.169Z,3.85
2019-02-27T14:36:42.499Z,3.55
2019-02-27T14:41:49.266Z,3.40
2019-02-27T14:46:56.096Z,3.52
2019-02-27T14:52:01.728Z,3.60
2019-02-27T14:57:06.970Z,3.37
2019-02-27T15:02:12.214Z,3.72
2019-02-27T15:07:17.565Z,4.00
2019-02-27T15:12:22.935Z,4.37
2019-02-27T15:17:28.211Z,3.67
2019-02-27T15:22:33.699Z,4.40
2019-02-27T15:27:39.777Z,3.98
2019-02-27T15:32:45.013Z,4.03
2019-02-27T15:37:50.253Z,3.72
2019-02-27T15:42:55.494Z,3.77
2019-02-27T15:48:00.757Z,3.83
2019-02-27T15:53:07.217Z,4.05
2019-02-27T15:58:16.011Z,4.50
2019-02-27T16:03:22.836Z,3.92
2019-02-27T16:08:28.628Z,4.25
2019-02-27T16:13:34.697Z,4.20
2019-02-27T16:18:40.757Z,4.00
2019-02-27T16:23:47.479Z,4.58
2019-02-27T16:28:52.755Z,4.28
2019-02-27T16:33:58.545Z,4.28
2019-02-27T16:39:07.639Z,5.08
2019-02-27T16:44:14.602Z,4.83
2019-02-27T16:49:19.848Z,5.10
2019-02-27T16:54:27.266Z,5.00
2019-02-27T16:59:32.018Z,4.22
2019-02-27T17:04:37.260Z,4.55
2019-02-27T17:09:44.615Z,5.03
2019-02-27T17:14:50.247Z,4.87
2019-02-27T17:19:59.372Z,5.90
2019-02-27T17:25:05.051Z,5.17
2019-02-27T17:30:14.487Z,5.47
2019-02-27T17:35:20.514Z,5.67
2019-02-27T17:40:29.067Z,7.20
2019-02-27T17:45:34.456Z,9.28
2019-02-27T17:50:39.890Z,8.15
2019-02-27T17:55:45.181Z,8.38
2019-02-27T18:00:56.629Z,6.58
2019-02-27T18:06:02.268Z,7.05
2019-02-27T18:11:07.803Z,5.50
2019-02-27T18:16:13.346Z,5.78
2019-02-27T18:21:19.027Z,7.30
2019-02-27T18:26:24.609Z,7.00
2019-02-27T18:31:29.856Z,7.20
2019-02-27T18:36:42.572Z,6.30
2019-02-27T18:41:42.353Z,6.22
2019-02-27T18:46:47.974Z,6.33
2019-02-27T18:51:53.534Z,6.30
2019-02-27T18:56:59.092Z,5.90
2019-02-27T19:02:07.460Z,6.17
2019-02-27T19:07:13.003Z,5.37
2019-02-27T19:12:19.097Z,5.30
2019-02-27T19:17:29.029Z,5.40
2019-02-27T19:22:32.163Z,5.20
2019-02-27T19:27:37.706Z,6.10
2019-02-27T19:32:43.041Z,7.40
2019-02-27T19:37:48.784Z,6.67
2019-02-27T19:42:58.872Z,6.08
2019-02-27T19:48:04.373Z,6.33
2019-02-27T19:53:09.614Z,7.53
2019-02-27T19:58:18.187Z,5.85
2019-02-27T20:03:21.768Z,5.08
2019-02-27T20:08:27.333Z,4.95
2019-02-27T20:13:32.672Z,5.20
2019-02-27T20:18:40.608Z,5.03
2019-02-27T20:23:46.957Z,5.50
2019-02-27T20:28:52.591Z,5.20
2019-02-27T20:33:58.682Z,5.35
2019-02-27T20:39:05.698Z,5.35
2019-02-27T20:44:11.794Z,5.12
2019-02-27T20:49:17.419Z,5.62
2019-02-27T20:54:24.186Z,4.78
2019-02-27T20:59:29.449Z,5.40
2019-02-27T21:04:35.966Z,5.55
2019-02-27T21:09:42.257Z,5.03
2019-02-27T21:14:49.110Z,4.97
2019-02-27T21:19:55.137Z,5.40
2019-02-27T21:25:00.706Z,5.15
2019-02-27T21:30:11.172Z,4.83
2019-02-27T21:35:16.502Z,4.90
2019-02-27T21:40:22.143Z,5.75
2019-02-27T21:45:27.678Z,5.53
2019-02-27T21:50:33.109Z,5.28
2019-02-27T21:55:39.679Z,5.37
2019-02-27T22:00:48.020Z,4.90
2019-02-27T22:05:53.658Z,5.65
2019-02-27T22:10:59.136Z,5.12
2019-02-27T22:16:05.937Z,5.60
2019-02-27T22:21:11.461Z,5.42
2019-02-27T22:26:17.050Z,5.55
2019-02-27T22:31:22.444Z,5.47
2019-02-27T22:36:27.855Z,6.00
2019-02-27T22:41:33.374Z,6.10
2019-02-27T22:46:38.640Z,5.85
2019-02-27T22:51:45.202Z,5.87
2019-02-27T22:56:52.046Z,6.03
2019-02-27T23:01:57.868Z,5.80
2019-02-27T23:07:03.548Z,6.28
2019-02-27T23:12:09.326Z,5.67
2019-02-27T23:17:14.931Z,6.20
2019-02-27T23:22:20.189Z,6.03
2019-02-27T23:27:26.282Z,6.37
2019-02-27T23:32:32.452Z,6.42
2019-02-27T23:37:37.693Z,6.30
2019-02-27T23:42:43.613Z,5.83
2019-02-27T23:47:49.520Z,6.12
2019-02-27T23:52:54.752Z,6.25
2019-02-27T23:58:00.047Z,6.37
